Time;durP1;ratioP1;P1;durP2;ratioP2;P2;SDS_P1;SDS_P2;PMS_P1;PMS_P2;Temp;Humidity;BMP_temperature;BMP_pressure;BME280_temperature;BME280_humidity;BME280_pressure;Samples;Min_cycle;Max_cycle;Signal;HPM_P1;HPM_P2
2024/03/23 00:00:04;;;;;;;10.90;4.30;;;9.40;99.90;;;;;;5041878;28;20149;-34
2024/03/23 00:02:31;;;;;;;7.03;3.90;;;9.40;99.90;;;;;;5029934;28;20195;-33
2024/03/23 00:04:57;;;;;;;9.32;4.32;;;9.40;99.90;;;;;;5042157;28;20025;-34
2024/03/23 00:07:24;;;;;;;10.55;4.25;;;9.30;99.90;;;;;;5031167;28;20037;-29
2024/03/23 00:09:53;;;;;;;13.15;4.85;;;9.30;99.90;;;;;;5041289;28;20037;-35
2024/03/23 00:12:20;;;;;;;11.25;5.07;;;9.30;99.90;;;;;;5033070;28;20461;-31
2024/03/23 00:14:46;;;;;;;9.10;4.40;;;9.30;99.90;;;;;;5038645;28;20025;-35
2024/03/23 00:17:13;;;;;;;11.80;4.50;;;9.30;99.90;;;;;;5035249;28;20068;-34
2024/03/23 00:19:39;;;;;;;10.70;4.80;;;9.30;99.90;;;;;;5036725;28;20044;-34
2024/03/23 00:22:06;;;;;;;11.02;4.63;;;9.30;99.90;;;;;;5037989;28;20039;-39
2024/03/23 00:24:36;;;;;;;9.90;4.50;;;9.30;99.90;;;;;;5033517;28;20468;-33
2024/03/23 00:27:02;;;;;;;10.77;4.40;;;9.30;99.90;;;;;;5040258;28;20029;-32
2024/03/23 00:29:29;;;;;;;10.20;4.47;;;9.20;99.90;;;;;;5031362;28;20041;-34
2024/03/23 00:31:55;;;;;;;8.32;4.47;;;9.20;99.90;;;;;;5023738;28;20369;-33
2024/03/23 00:34:22;;;;;;;12.93;5.13;;;9.20;99.90;;;;;;5032537;28;20047;-32
2024/03/23 00:36:48;;;;;;;11.57;4.90;;;9.20;99.90;;;;;;5023466;28;20037;-36
2024/03/23 00:39:15;;;;;;;11.13;4.75;;;9.20;99.90;;;;;;5032853;28;20469;-36
2024/03/23 00:41:41;;;;;;;8.90;4.40;;;9.10;99.90;;;;;;5021890;28;20026;-35
2024/03/23 00:44:08;;;;;;;10.50;4.45;;;9.10;99.90;;;;;;5034140;28;20037;-31
2024/03/23 00:46:35;;;;;;;12.10;5.40;;;9.10;99.90;;;;;;5021462;28;20029;-32
2024/03/23 00:49:04;;;;;;;8.10;4.90;;;9.10;99.90;;;;;;5034540;28;20033;-35
2024/03/23 00:51:31;;;;;;;9.00;4.30;;;9.10;99.90;;;;;;5002213;28;20033;-35
2024/03/23 00:53:56;;;;;;;10.00;4.63;;;9.00;99.90;;;;;;5026398;28;20078;-31
2024/03/23 00:56:22;;;;;;;11.85;5.47;;;9.00;99.90;;;;;;5022816;28;20039;-33
2024/03/23 00:58:48;;;;;;;11.65;5.70;;;9.00;99.90;;;;;;5029413;28;20445;-31
2024/03/23 01:01:13;;;;;;;13.60;5.57;;;9.00;99.90;;;;;;5024093;28;20037;-32
2024/03/23 01:03:39;;;;;;;14.63;5.07;;;9.00;99.90;;;;;;5027166;28;20013;-34
2024/03/23 01:06:05;;;;;;;9.82;4.95;;;9.00;99.90;;;;;;5028612;28;20040;-35
2024/03/23 01:08:30;;;;;;;14.85;6.20;;;9.00;99.90;;;;;;5023178;28;20029;-31
2024/03/23 01:10:57;;;;;;;14.27;5.60;;;9.00;99.90;;;;;;5030702;28;20029;-37
2024/03/23 01:13:23;;;;;;;10.65;5.25;;;9.00;99.90;;;;;;5021854;28;20100;-40
2024/03/23 01:15:50;;;;;;;15.00;5.95;;;9.00;99.90;;;;;;5032716;28;20048;-34
2024/03/23 01:18:16;;;;;;;11.57;5.95;;;8.90;99.90;;;;;;5022635;28;20395;-33
2024/03/23 01:20:42;;;;;;;13.73;6.40;;;8.90;99.90;;;;;;5032150;28;20503;-31
2024/03/23 01:23:07;;;;;;;17.63;6.90;;;8.90;99.90;;;;;;5020851;28;20419;-34
2024/03/23 01:25:33;;;;;;;11.45;5.10;;;8.90;99.90;;;;;;5033773;28;20435;-32
2024/03/23 01:27:58;;;;;;;12.20;6.25;;;8.90;99.90;;;;;;5021248;28;20048;-33
2024/03/23 01:30:24;;;;;;;11.18;5.25;;;8.80;99.90;;;;;;5033038;28;20119;-33
2024/03/23 01:32:49;;;;;;;9.52;5.88;;;8.80;99.90;;;;;;5021737;28;20112;-31
2024/03/23 01:35:21;;;;;;;9.25;5.35;;;8.80;99.90;;;;;;5029706;28;20406;-34
2024/03/23 01:37:47;;;;;;;10.40;4.68;;;8.80;99.90;;;;;;5023206;28;20667;-31
2024/03/23 01:40:15;;;;;;;8.93;4.65;;;8.80;99.90;;;;;;5028911;28;20483;-30
2024/03/23 01:42:41;;;;;;;12.88;5.75;;;8.80;99.90;;;;;;5024197;28;20030;-33
2024/03/23 01:45:11;;;;;;;13.65;6.35;;;8.70;99.90;;;;;;5026562;28;20328;-36
2024/03/23 01:47:37;;;;;;;9.25;5.40;;;8.70;99.90;;;;;;5026300;28;20056;-36
2024/03/23 01:50:05;;;;;;;12.20;5.32;;;8.80;99.90;;;;;;5024960;28;20613;-36
2024/03/23 01:52:30;;;;;;;11.63;5.82;;;8.70;99.90;;;;;;5028442;28;20852;-30
2024/03/23 01:54:56;;;;;;;11.25;6.05;;;8.80;99.90;;;;;;5022221;28;20030;-34
2024/03/23 01:57:24;;;;;;;12.25;5.63;;;8.70;99.90;;;;;;5030085;28;20029;-38
2024/03/23 01:59:50;;;;;;;9.30;4.97;;;8.80;99.90;;;;;;5021820;28;20051;-33
2024/03/23 02:02:17;;;;;;;13.70;6.45;;;8.80;99.90;;;;;;5031690;28;20502;-34
2024/03/23 02:04:43;;;;;;;12.48;5.38;;;8.80;99.90;;;;;;5020849;28;20095;-35
2024/03/23 02:07:09;;;;;;;10.88;5.10;;;8.80;99.90;;;;;;5031418;28;20045;-35
2024/03/23 02:09:34;;;;;;;9.80;4.80;;;8.80;99.90;;;;;;5019879;28;20503;-31
2024/03/23 02:12:02;;;;;;;10.43;5.18;;;8.80;99.90;;;;;;5032628;28;20492;-32
2024/03/23 02:14:28;;;;;;;10.77;5.47;;;8.80;99.90;;;;;;5019795;28;20615;-36
2024/03/23 02:16:53;;;;;;;11.30;5.40;;;8.80;99.90;;;;;;5031840;28;20025;-31
2024/03/23 02:19:19;;;;;;;8.50;5.00;;;8.80;99.90;;;;;;5020412;28;20070;-33
2024/03/23 02:21:46;;;;;;;9.02;4.97;;;8.80;99.90;;;;;;5030401;28;20078;-32
2024/03/23 02:24:12;;;;;;;12.70;5.45;;;8.70;99.90;;;;;;5021216;28;20021;-35
2024/03/23 02:26:38;;;;;;;9.52;5.38;;;8.70;99.90;;;;;;5026859;28;20761;-33
2024/03/23 02:29:03;;;;;;;10.50;4.95;;;8.70;99.90;;;;;;5025285;28;20488;-32
2024/03/23 02:31:29;;;;;;;10.43;5.28;;;8.70;99.90;;;;;;5022922;28;20036;-31
2024/03/23 02:33:54;;;;;;;10.63;5.13;;;8.70;99.90;;;;;;5028143;28;20033;-36
2024/03/23 02:36:21;;;;;;;8.45;5.05;;;8.70;99.90;;;;;;5021544;28;20029;-34
2024/03/23 02:38:46;;;;;;;10.63;5.40;;;8.60;99.90;;;;;;5030052;28;20026;-31
2024/03/23 02:41:12;;;;;;;9.38;5.43;;;8.60;99.90;;;;;;5021128;28;20345;-34
2024/03/23 02:43:38;;;;;;;14.05;6.35;;;8.50;99.90;;;;;;5030849;28;20025;-34
2024/03/23 02:46:04;;;;;;;10.23;5.43;;;8.50;99.90;;;;;;5019855;28;20018;-33
2024/03/23 02:48:29;;;;;;;11.57;6.43;;;8.40;99.90;;;;;;5031073;28;20029;-34
2024/03/23 02:50:55;;;;;;;11.30;6.65;;;8.30;99.90;;;;;;5020300;28;20046;-36
2024/03/23 02:53:20;;;;;;;10.63;6.30;;;8.30;99.90;;;;;;5031499;28;20028;-35
2024/03/23 02:55:46;;;;;;;11.15;6.10;;;8.30;99.90;;;;;;5019743;28;20040;-34
2024/03/23 02:58:11;;;;;;;9.27;5.45;;;8.30;99.90;;;;;;5030894;28;20021;-36
2024/03/23 03:00:37;;;;;;;8.07;5.28;;;8.20;99.90;;;;;;5019774;28;20029;-35
2024/03/23 03:03:18;;;;;;;9.25;5.82;;;8.20;99.90;;;;;;5029110;28;20049;-33
2024/03/23 03:05:44;;;;;;;11.85;6.20;;;8.10;99.90;;;;;;5021645;28;20048;-35
2024/03/23 03:08:09;;;;;;;9.73;5.70;;;8.10;99.90;;;;;;5028058;28;20402;-36
2024/03/23 03:10:36;;;;;;;13.75;6.65;;;8.10;99.90;;;;;;5023713;28;20375;-32
2024/03/23 03:13:02;;;;;;;12.10;6.45;;;8.00;99.90;;;;;;5025085;28;20103;-35
2024/03/23 03:15:28;;;;;;;12.73;6.57;;;8.00;99.90;;;;;;5026021;28;20468;-35
2024/03/23 03:17:53;;;;;;;9.65;6.22;;;8.00;99.90;;;;;;5023186;28;20028;-36
2024/03/23 03:20:21;;;;;;;8.95;6.03;;;8.00;99.90;;;;;;5027456;28;20056;-35
2024/03/23 03:22:47;;;;;;;16.73;7.68;;;8.00;99.90;;;;;;5021546;28;20026;-36
2024/03/23 03:25:13;;;;;;;11.82;7.10;;;7.90;99.90;;;;;;5030446;28;20044;-36
2024/03/23 03:27:38;;;;;;;13.20;6.20;;;7.90;99.90;;;;;;5020327;28;20799;-35
2024/03/23 03:30:05;;;;;;;16.77;6.95;;;7.90;99.90;;;;;;5030617;28;20120;-36
2024/03/23 03:32:32;;;;;;;13.02;7.40;;;7.90;99.90;;;;;;5019438;28;20428;-33
2024/03/23 03:34:58;;;;;;;14.60;7.07;;;7.90;99.90;;;;;;5032955;28;20022;-33
2024/03/23 03:37:25;;;;;;;13.07;6.15;;;7.90;99.90;;;;;;5022640;28;20068;-34
2024/03/23 03:39:50;;;;;;;11.23;6.43;;;7.90;99.90;;;;;;5035930;28;20028;-35
2024/03/23 03:42:16;;;;;;;13.20;7.25;;;7.80;99.90;;;;;;5022452;28;20510;-33
2024/03/23 03:44:42;;;;;;;13.82;7.30;;;7.80;99.90;;;;;;5033912;28;20025;-36
2024/03/23 03:47:07;;;;;;;11.55;6.68;;;7.80;99.90;;;;;;5024594;28;20110;-35
2024/03/23 03:49:33;;;;;;;13.27;7.07;;;7.80;99.90;;;;;;5030163;28;20468;-35
2024/03/23 03:52:01;;;;;;;12.63;6.32;;;7.80;99.90;;;;;;5027082;28;20056;-35
2024/03/23 03:54:26;;;;;;;11.88;6.40;;;7.80;99.90;;;;;;5028564;28;20100;-35
2024/03/23 03:56:52;;;;;;;10.90;6.30;;;7.80;99.90;;;;;;5028750;28;20040;-36
2024/03/23 03:59:17;;;;;;;12.77;8.40;;;7.80;99.90;;;;;;5025663;28;20025;-35
2024/03/23 04:01:43;;;;;;;11.10;6.47;;;7.80;99.90;;;;;;5031760;28;20056;-32
2024/03/23 04:04:08;;;;;;;11.88;6.32;;;7.70;99.90;;;;;;5023272;28;20075;-35
2024/03/23 04:06:34;;;;;;;11.60;5.90;;;7.70;99.90;;;;;;5032966;28;20036;-32
2024/03/23 04:08:59;;;;;;;11.43;6.68;;;7.70;99.90;;;;;;5023352;28;20032;-31
2024/03/23 04:11:25;;;;;;;13.18;6.90;;;7.60;99.90;;;;;;5033203;28;20500;-34
2024/03/23 04:13:51;;;;;;;9.18;6.32;;;7.60;99.90;;;;;;5022514;28;20396;-33
2024/03/23 04:16:30;;;;;;;11.75;5.60;;;7.60;99.90;;;;;;5034172;28;20056;-35
2024/03/23 04:18:55;;;;;;;8.85;5.53;;;7.60;99.90;;;;;;5022760;28;20051;-38
2024/03/23 04:21:22;;;;;;;10.40;5.75;;;7.50;99.90;;;;;;5034234;28;20403;-35
2024/03/23 04:23:48;;;;;;;9.05;5.10;;;7.50;99.90;;;;;;5022206;28;20017;-35
2024/03/23 04:26:15;;;;;;;9.75;5.22;;;7.40;99.90;;;;;;5033460;28;20033;-34
2024/03/23 04:28:40;;;;;;;9.68;5.38;;;7.40;99.90;;;;;;5002235;28;20025;-31
2024/03/23 04:31:06;;;;;;;11.07;5.47;;;7.40;99.90;;;;;;5024996;28;20052;-33
2024/03/23 04:33:31;;;;;;;8.85;5.07;;;7.40;99.90;;;;;;5024959;28;20044;-34
2024/03/23 04:35:57;;;;;;;11.80;5.50;;;7.30;99.90;;;;;;5029056;28;20127;-32
2024/03/23 04:38:23;;;;;;;10.90;5.50;;;7.40;99.90;;;;;;5026023;28;20025;-35
2024/03/23 04:40:58;;;;;;;10.32;5.25;;;7.30;99.90;;;;;;5026401;28;20086;-34
2024/03/23 04:43:26;;;;;;;8.48;5.18;;;7.30;99.90;;;;;;5028018;28;20434;-32
2024/03/23 04:45:51;;;;;;;9.68;4.78;;;7.30;99.90;;;;;;5024240;28;20030;-34
2024/03/23 04:48:22;;;;;;;7.82;4.72;;;7.20;99.90;;;;;;5030791;28;20026;-35
2024/03/23 04:50:49;;;;;;;7.78;4.20;;;7.20;99.90;;;;;;5023690;28;20072;-33
2024/03/23 04:53:15;;;;;;;6.72;3.95;;;7.20;99.90;;;;;;5032175;28;20486;-33
2024/03/23 04:55:41;;;;;;;9.82;3.92;;;7.20;99.90;;;;;;5023303;28;20033;-34
2024/03/23 04:58:07;;;;;;;5.05;3.08;;;7.10;99.90;;;;;;5032933;28;20120;-35
2024/03/23 05:00:32;;;;;;;11.32;3.40;;;7.10;99.90;;;;;;5021405;28;20039;-33
2024/03/23 05:02:58;;;;;;;7.28;3.17;;;7.00;99.90;;;;;;5033816;28;20033;-30
2024/03/23 05:05:24;;;;;;;8.10;3.40;;;7.00;99.90;;;;;;5020858;28;20029;-35
2024/03/23 05:07:49;;;;;;;6.13;3.38;;;7.00;99.90;;;;;;5034355;28;20025;-37
2024/03/23 05:10:15;;;;;;;8.52;3.30;;;7.00;99.90;;;;;;5021685;28;20063;-31
2024/03/23 05:12:40;;;;;;;5.30;2.92;;;7.00;99.90;;;;;;5032351;28;20025;-35
2024/03/23 05:15:07;;;;;;;8.80;3.00;;;7.00;99.90;;;;;;5022990;28;20033;-39
2024/03/23 05:17:34;;;;;;;8.23;2.97;;;6.90;99.90;;;;;;5030214;28;20029;-34
2024/03/23 05:19:59;;;;;;;7.13;2.70;;;7.00;99.90;;;;;;5023961;28;20026;-34
2024/03/23 05:22:25;;;;;;;5.75;3.20;;;7.00;99.90;;;;;;5026897;28;20071;-35
2024/03/23 05:24:51;;;;;;;8.55;2.78;;;7.00;99.90;;;;;;5027397;28;20037;-37
2024/03/23 05:27:16;;;;;;;6.07;3.05;;;7.00;99.90;;;;;;5024188;28;20522;-35
2024/03/23 05:29:42;;;;;;;7.07;2.78;;;7.00;99.90;;;;;;5029783;28;20128;-33
2024/03/23 05:32:07;;;;;;;4.40;2.60;;;7.00;99.90;;;;;;5022293;28;20073;-34
2024/03/23 05:34:33;;;;;;;8.52;2.53;;;7.10;99.90;;;;;;5031840;28;20025;-34
2024/03/23 05:36:59;;;;;;;8.55;2.63;;;7.00;99.90;;;;;;5022970;28;20032;-31
2024/03/23 05:39:25;;;;;;;3.92;2.17;;;7.10;99.90;;;;;;5031402;28;20029;-30
2024/03/23 05:41:51;;;;;;;4.50;2.25;;;7.00;99.90;;;;;;5021136;28;20053;-35
2024/03/23 05:44:16;;;;;;;6.30;2.40;;;7.00;99.90;;;;;;5033341;28;20045;-33
2024/03/23 05:46:42;;;;;;;5.38;2.28;;;7.00;99.90;;;;;;5020856;28;20101;-34
2024/03/23 05:49:09;;;;;;;4.47;2.65;;;6.90;99.90;;;;;;5032620;28;20811;-34
2024/03/23 05:51:34;;;;;;;4.60;2.10;;;6.90;99.90;;;;;;5020759;28;20053;-31
2024/03/23 05:54:00;;;;;;;6.68;2.60;;;6.90;99.90;;;;;;5031943;28;20456;-35
2024/03/23 05:56:26;;;;;;;6.10;2.40;;;6.80;99.90;;;;;;5021235;28;20033;-36
2024/03/23 05:58:52;;;;;;;5.15;2.10;;;6.80;99.90;;;;;;5028932;28;20021;-34
2024/03/23 06:01:17;;;;;;;4.82;1.90;;;6.80;99.90;;;;;;5024333;28;20651;-31
2024/03/23 06:03:46;;;;;;;5.55;1.80;;;6.80;99.90;;;;;;5025346;28;20903;-34
2024/03/23 06:06:12;;;;;;;3.50;2.10;;;6.70;99.90;;;;;;5026750;28;20029;-35
2024/03/23 06:08:38;;;;;;;5.30;2.22;;;6.70;99.90;;;;;;5023250;28;20029;-35
2024/03/23 06:11:05;;;;;;;5.93;2.55;;;6.70;99.90;;;;;;5029583;28;20448;-34
2024/03/23 06:13:31;;;;;;;4.25;2.20;;;6.70;99.90;;;;;;5021813;28;20129;-36
2024/03/23 06:15:58;;;;;;;6.95;2.42;;;6.70;99.90;;;;;;5017540;28;20021;-34
2024/03/23 06:18:24;;;;;;;7.63;2.10;;;6.70;99.90;;;;;;5038173;28;20182;-33
2024/03/23 06:20:49;;;;;;;4.63;2.53;;;6.70;99.90;;;;;;5029187;28;20048;-36
2024/03/23 06:23:16;;;;;;;8.18;2.53;;;6.80;99.90;;;;;;5039130;28;20108;-36
2024/03/23 06:25:42;;;;;;;8.27;2.53;;;6.80;99.90;;;;;;5026821;28;20028;-34
2024/03/23 06:28:08;;;;;;;5.10;2.40;;;6.80;99.90;;;;;;5040403;28;20031;-30
2024/03/23 06:30:33;;;;;;;6.32;2.10;;;6.90;99.90;;;;;;5026328;28;20457;-35
2024/03/23 06:32:59;;;;;;;6.45;2.50;;;6.90;99.90;;;;;;5040773;28;20248;-36
2024/03/23 06:35:24;;;;;;;5.50;2.33;;;6.90;99.90;;;;;;5027556;28;20144;-34
2024/03/23 06:37:50;;;;;;;5.15;2.40;;;7.00;99.90;;;;;;5038125;28;20143;-33
2024/03/23 06:40:16;;;;;;;4.18;1.85;;;6.90;99.90;;;;;;5031313;28;20076;-37
2024/03/23 06:42:44;;;;;;;3.30;1.92;;;7.00;99.90;;;;;;5036312;28;20115;-29
2024/03/23 06:45:10;;;;;;;5.03;1.88;;;7.00;99.90;;;;;;5032862;28;20033;-33
2024/03/23 06:47:35;;;;;;;5.07;2.08;;;7.10;99.90;;;;;;5033722;28;20439;-31
2024/03/23 06:50:02;;;;;;;6.32;1.92;;;7.30;99.90;;;;;;5036749;28;20060;-36
2024/03/23 06:52:29;;;;;;;6.25;1.83;;;7.40;99.90;;;;;;5030123;28;20106;-35
2024/03/23 06:54:54;;;;;;;4.55;1.80;;;7.40;99.90;;;;;;5039344;28;20053;-33
2024/03/23 06:57:20;;;;;;;5.22;1.90;;;7.40;99.90;;;;;;5029498;28;20105;-29
2024/03/23 06:59:45;;;;;;;5.32;1.95;;;7.50;99.90;;;;;;5038783;28;20583;-32
2024/03/23 07:02:11;;;;;;;5.45;2.20;;;7.50;99.90;;;;;;5029236;28;20029;-34
2024/03/23 07:04:39;;;;;;;4.15;1.60;;;7.60;99.90;;;;;;5038950;28;20024;-35
2024/03/23 07:07:05;;;;;;;4.25;1.67;;;7.70;99.90;;;;;;5025467;28;20042;-31
2024/03/23 07:09:30;;;;;;;3.28;1.70;;;7.70;99.90;;;;;;5040725;28;20029;-33
2024/03/23 07:11:57;;;;;;;6.07;2.13;;;7.70;99.90;;;;;;5030807;28;20028;-32
2024/03/23 07:14:23;;;;;;;5.38;1.75;;;7.70;99.90;;;;;;5044031;28;20080;-35
2024/03/23 07:16:49;;;;;;;6.13;1.80;;;7.70;99.90;;;;;;5031638;28;20025;-35
2024/03/23 07:19:16;;;;;;;5.07;1.83;;;7.70;99.90;;;;;;5042106;28;20060;-32
2024/03/23 07:21:45;;;;;;;5.40;1.83;;;7.70;99.90;;;;;;5034663;28;20108;-36
2024/03/23 07:24:11;;;;;;;7.13;1.73;;;7.70;99.90;;;;;;5040154;28;20116;-34
2024/03/23 07:26:37;;;;;;;7.25;2.50;;;7.70;99.90;;;;;;5035780;28;20017;-34
2024/03/23 07:29:04;;;;;;;4.40;1.95;;;7.70;99.90;;;;;;5038518;28;20049;-34
2024/03/23 07:31:30;;;;;;;6.80;2.17;;;7.70;99.90;;;;;;5038123;28;20041;-32
2024/03/23 07:34:01;;;;;;;5.35;2.25;;;7.80;99.90;;;;;;5035274;28;20513;-37
2024/03/23 07:36:27;;;;;;;7.07;2.15;;;7.80;99.90;;;;;;5039814;28;20029;-32
2024/03/23 07:38:55;;;;;;;6.38;2.50;;;7.80;99.90;;;;;;5033870;28;20133;-35
2024/03/23 07:41:21;;;;;;;6.07;2.08;;;7.80;99.90;;;;;;5040860;28;20233;-30
2024/03/23 07:43:47;;;;;;;7.40;2.75;;;7.90;99.90;;;;;;5031994;28;20044;-34
2024/03/23 07:46:14;;;;;;;7.30;2.55;;;7.90;99.90;;;;;;5041307;28;20055;-32
2024/03/23 07:48:42;;;;;;;8.98;2.60;;;7.90;99.90;;;;;;5031024;28;20063;-37
2024/03/23 07:51:15;;;;;;;5.75;2.53;;;7.90;99.90;;;;;;5042950;28;20507;-37
2024/03/23 07:53:44;;;;;;;2.88;1.58;;;8.00;99.90;;;;;;5031305;28;20017;-37
2024/03/23 07:56:10;;;;;;;7.03;2.28;;;8.00;99.90;;;;;;5042612;28;20822;-34
2024/03/23 07:58:36;;;;;;;5.85;2.20;;;8.10;99.90;;;;;;5029659;28;20029;-32
2024/03/23 08:01:05;;;;;;;6.53;2.70;;;8.10;99.90;;;;;;5042485;28;20072;-36
2024/03/23 08:03:31;;;;;;;7.97;2.60;;;8.20;99.90;;;;;;5029565;28;20021;-33
2024/03/23 08:05:57;;;;;;;7.60;2.78;;;8.30;99.90;;;;;;5042822;28;20958;-34
2024/03/23 08:08:22;;;;;;;7.13;2.80;;;8.40;99.90;;;;;;5031696;28;20036;-36
2024/03/23 08:10:52;;;;;;;5.85;2.40;;;8.50;99.90;;;;;;5040536;28;20045;-35
2024/03/23 08:13:18;;;;;;;9.70;3.30;;;8.50;99.90;;;;;;5034663;28;20030;-32
2024/03/23 08:15:44;;;;;;;6.00;2.40;;;8.60;99.90;;;;;;5037209;28;20400;-35
2024/03/23 08:18:13;;;;;;;10.10;2.92;;;8.70;99.90;;;;;;5037201;28;20064;-35
2024/03/23 08:20:38;;;;;;;9.88;2.50;;;8.80;99.90;;;;;;5034728;28;20738;-37
2024/03/23 08:23:06;;;;;;;7.68;2.65;;;8.80;99.90;;;;;;5037594;28;20540;-35
2024/03/23 08:25:31;;;;;;;7.63;2.40;;;8.80;99.90;;;;;;5033370;28;20025;-34
2024/03/23 08:27:58;;;;;;;8.00;2.63;;;8.90;99.90;;;;;;5041193;28;20039;-33
2024/03/23 08:30:27;;;;;;;8.05;2.38;;;8.90;99.90;;;;;;5029472;28;20558;-30
2024/03/23 08:32:53;;;;;;;10.48;2.80;;;8.90;99.90;;;;;;5040732;28;20041;-35
2024/03/23 08:35:19;;;;;;;6.68;2.13;;;9.00;99.90;;;;;;5030547;28;20434;-35
2024/03/23 08:37:44;;;;;;;8.25;3.40;;;9.10;99.90;;;;;;5041024;28;20053;-37
2024/03/23 08:40:10;;;;;;;8.05;2.40;;;9.10;99.90;;;;;;5028989;28;20115;-34
2024/03/23 08:42:36;;;;;;;8.95;2.58;;;9.20;99.90;;;;;;5041691;28;20036;-33
2024/03/23 08:45:02;;;;;;;5.07;1.80;;;9.10;99.90;;;;;;5028422;28;20045;-31
2024/03/23 08:47:27;;;;;;;5.70;2.15;;;9.20;99.90;;;;;;5041406;28;20032;-32
2024/03/23 08:49:53;;;;;;;9.23;2.40;;;9.30;99.90;;;;;;5030307;28;20030;-35
2024/03/23 08:52:19;;;;;;;10.80;2.40;;;9.30;99.90;;;;;;5039096;28;20078;-37
2024/03/23 08:54:44;;;;;;;8.88;2.10;;;9.40;99.90;;;;;;5032208;28;20112;-35
2024/03/23 08:57:10;;;;;;;6.93;1.67;;;9.40;99.90;;;;;;5037290;28;20157;-36
2024/03/23 08:59:37;;;;;;;8.85;2.10;;;9.40;99.90;;;;;;5033986;28;20071;-34
2024/03/23 09:02:03;;;;;;;4.20;1.63;;;9.40;99.90;;;;;;5034938;28;20086;-35
2024/03/23 09:04:28;;;;;;;5.88;2.08;;;9.30;99.90;;;;;;5037022;28;20021;-33
2024/03/23 09:06:58;;;;;;;7.20;2.05;;;9.10;99.90;;;;;;5032533;28;20025;-32
2024/03/23 09:09:24;;;;;;;9.20;2.10;;;9.00;99.90;;;;;;5038345;28;20029;-36
2024/03/23 09:11:49;;;;;;;7.85;2.13;;;8.70;99.90;;;;;;5029939;28;20021;-36
2024/03/23 09:14:15;;;;;;;8.57;1.67;;;8.40;99.90;;;;;;5039447;28;20438;-37
2024/03/23 09:16:40;;;;;;;6.07;1.80;;;8.10;99.90;;;;;;5029637;28;20033;-32
2024/03/23 09:19:06;;;;;;;4.00;1.55;;;7.90;99.90;;;;;;5039992;28;20052;-33
2024/03/23 09:21:32;;;;;;;5.30;1.60;;;7.80;99.90;;;;;;5027864;28;20027;-31
2024/03/23 09:23:57;;;;;;;5.07;2.17;;;7.80;99.90;;;;;;5041171;28;20479;-33
2024/03/23 09:26:25;;;;;;;4.75;1.65;;;7.70;99.90;;;;;;5027144;28;20743;-34
2024/03/23 09:28:51;;;;;;;7.60;2.40;;;7.70;99.90;;;;;;5041537;28;20881;-33
2024/03/23 09:31:17;;;;;;;7.60;2.00;;;7.70;99.90;;;;;;5029314;28;20060;-36
2024/03/23 09:33:42;;;;;;;5.40;1.92;;;7.80;99.90;;;;;;5038583;28;20103;-36
2024/03/23 09:36:09;;;;;;;9.85;1.73;;;7.80;99.90;;;;;;5032369;28;20021;-34
2024/03/23 09:38:35;;;;;;;4.28;1.40;;;7.90;99.90;;;;;;5036784;28;20138;-35
2024/03/23 09:41:00;;;;;;;7.90;2.10;;;7.90;99.90;;;;;;5033845;28;20461;-34
2024/03/23 09:43:26;;;;;;;4.50;1.60;;;7.90;99.90;;;;;;5033339;28;20473;-31
2024/03/23 09:45:52;;;;;;;6.45;1.92;;;8.10;99.90;;;;;;5034998;28;20033;-32
2024/03/23 09:48:18;;;;;;;5.75;1.77;;;8.10;99.90;;;;;;5029921;28;20032;-35
2024/03/23 09:50:45;;;;;;;6.50;2.30;;;8.20;99.90;;;;;;5037869;28;20099;-32
2024/03/23 09:53:12;;;;;;;4.03;1.48;;;8.30;99.90;;;;;;5016702;28;20036;-34
2024/03/23 09:55:39;;;;;;;8.75;1.70;;;8.40;99.90;;;;;;5036950;28;20144;-32
2024/03/23 09:58:05;;;;;;;5.93;1.80;;;8.70;99.90;;;;;;5028156;28;20035;-33
2024/03/23 10:00:31;;;;;;;5.97;1.67;;;8.90;99.90;;;;;;5040161;28;20041;-31
2024/03/23 10:03:01;;;;;;;5.60;2.25;;;9.20;99.90;;;;;;5028112;28;20020;-33
2024/03/23 10:05:27;;;;;;;8.52;2.17;;;9.40;99.90;;;;;;5040154;28;20566;-35
2024/03/23 10:07:53;;;;;;;11.57;2.38;;;9.50;99.90;;;;;;5026684;28;20540;-34
2024/03/23 10:10:20;;;;;;;4.90;1.50;;;9.50;99.90;;;;;;5040000;28;20043;-35
2024/03/23 10:12:50;;;;;;;7.15;1.88;;;9.50;99.90;;;;;;5027712;28;20583;-34
2024/03/23 10:15:20;;;;;;;5.72;2.00;;;9.40;99.90;;;;;;5039645;28;20037;-35
2024/03/23 10:17:46;;;;;;;5.13;1.67;;;9.40;99.90;;;;;;5029605;28;20021;-33
2024/03/23 10:20:12;;;;;;;8.63;1.73;;;9.50;99.90;;;;;;5037840;28;20117;-35
2024/03/23 10:22:41;;;;;;;5.43;1.52;;;9.50;99.90;;;;;;5030958;28;20997;-32
2024/03/23 10:25:11;;;;;;;3.67;1.27;;;9.60;99.90;;;;;;5036508;28;20028;-35
2024/03/23 10:27:37;;;;;;;11.40;1.85;;;9.70;99.90;;;;;;5033262;28;20362;-33
2024/03/23 10:30:16;;;;;;;5.13;1.45;;;9.80;99.90;;;;;;5034251;28;20036;-36
2024/03/23 10:32:42;;;;;;;9.38;1.52;;;9.80;99.90;;;;;;5033515;28;20037;-36
2024/03/23 10:35:14;;;;;;;5.30;1.60;;;9.60;99.90;;;;;;5033781;28;20137;-34
2024/03/23 10:37:41;;;;;;;4.22;1.70;;;9.20;99.90;;;;;;5034656;28;20029;-33
2024/03/23 10:40:09;;;;;;;5.32;1.33;;;8.80;99.90;;;;;;5031880;28;20029;-36
2024/03/23 10:42:35;;;;;;;5.82;1.92;;;8.40;99.90;;;;;;5037644;28;20031;-35
2024/03/23 10:45:03;;;;;;;2.88;1.38;;;8.30;99.90;;;;;;5028257;28;20387;-37
2024/03/23 10:47:29;;;;;;;4.47;1.40;;;8.20;99.90;;;;;;5038472;28;20862;-33
2024/03/23 10:49:54;;;;;;;5.38;1.77;;;8.10;99.90;;;;;;5027662;28;20033;-35
2024/03/23 10:52:20;;;;;;;6.95;2.08;;;8.20;99.90;;;;;;5038422;28;20079;-34
2024/03/23 10:54:50;;;;;;;8.50;2.08;;;8.30;99.90;;;;;;5028382;28;20133;-33
2024/03/23 10:57:20;;;;;;;6.57;1.80;;;8.50;99.90;;;;;;5039655;28;20029;-35
2024/03/23 10:59:46;;;;;;;5.18;1.70;;;8.80;99.90;;;;;;5027092;28;20108;-39
2024/03/23 11:02:21;;;;;;;6.97;1.75;;;9.10;99.90;;;;;;5037896;28;20033;-35
2024/03/23 11:04:48;;;;;;;7.90;2.08;;;9.30;99.90;;;;;;5024645;28;20029;-37
2024/03/23 11:07:33;;;;;;;5.90;1.77;;;9.40;99.90;;;;;;5038583;28;20142;-36
2024/03/23 11:10:00;;;;;;;10.20;2.00;;;9.50;99.90;;;;;;5025002;28;20045;-33
2024/03/23 11:12:27;;;;;;;5.13;1.73;;;9.50;99.90;;;;;;5037169;28;20041;-35
2024/03/23 11:15:05;;;;;;;6.60;2.00;;;9.60;99.90;;;;;;5026007;28;20091;-31
2024/03/23 11:17:31;;;;;;;8.18;1.92;;;9.60;99.90;;;;;;4999514;28;20034;-35
2024/03/23 11:20:05;;;;;;;6.93;1.70;;;9.60;99.90;;;;;;5026203;28;20040;-34
2024/03/23 11:22:46;;;;;;;5.13;1.73;;;9.60;99.90;;;;;;4999910;28;20061;-34
2024/03/23 11:25:23;;;;;;;5.32;1.60;;;9.70;99.90;;;;;;5027192;28;20183;-32
2024/03/23 11:28:11;;;;;;;6.13;1.92;;;9.90;99.90;;;;;;4999505;28;20055;-36
2024/03/23 11:30:38;;;;;;;5.88;1.77;;;10.00;99.90;;;;;;5029790;28;20383;-37
2024/03/23 11:33:04;;;;;;;6.15;1.85;;;10.20;99.90;;;;;;5019348;28;20029;-36
2024/03/23 11:35:40;;;;;;;8.95;1.80;;;10.30;99.90;;;;;;5031282;28;20025;-34
2024/03/23 11:38:12;;;;;;;6.00;1.67;;;10.40;99.90;;;;;;4999335;28;20141;-36
2024/03/23 11:40:39;;;;;;;4.78;1.58;;;10.30;99.90;;;;;;5025345;28;20021;-35
2024/03/23 11:43:11;;;;;;;4.10;1.48;;;10.20;99.90;;;;;;5020163;28;20129;-36
2024/03/23 11:45:45;;;;;;;4.60;1.30;;;10.20;99.90;;;;;;5029276;28;20025;-36
2024/03/23 11:48:12;;;;;;;4.57;1.33;;;10.20;99.90;;;;;;5019946;28;20088;-34
2024/03/23 11:50:40;;;;;;;3.13;1.15;;;10.20;99.90;;;;;;5027829;28;20452;-33
2024/03/23 11:53:27;;;;;;;5.40;2.00;;;10.20;99.90;;;;;;5022089;28;20029;-32
2024/03/23 11:55:57;;;;;;;5.25;1.67;;;10.30;99.90;;;;;;5029977;28;20020;-32
2024/03/23 11:58:24;;;;;;;5.25;1.67;;;10.30;99.90;;;;;;5024744;28;20025;-35
2024/03/23 12:00:52;;;;;;;4.80;1.33;;;10.40;99.90;;;;;;5029108;28;20032;-34
2024/03/23 12:03:18;;;;;;;5.80;1.52;;;10.40;99.90;;;;;;5026751;28;20041;-33
2024/03/23 12:05:53;;;;;;;5.28;1.60;;;10.30;99.90;;;;;;5028099;28;20363;-34
2024/03/23 12:08:23;;;;;;;5.72;1.45;;;10.30;99.90;;;;;;5028034;28;20029;-32
2024/03/23 12:10:53;;;;;;;4.65;1.20;;;10.30;99.90;;;;;;5026539;28;20033;-36
2024/03/23 12:13:20;;;;;;;5.07;1.33;;;10.30;99.90;;;;;;5028966;28;20025;-33
2024/03/23 12:15:49;;;;;;;5.57;1.50;;;10.20;99.90;;;;;;5024295;28;20029;-33
2024/03/23 12:18:14;;;;;;;4.68;1.45;;;10.00;99.90;;;;;;5031516;28;20033;-32
2024/03/23 12:20:40;;;;;;;6.82;1.35;;;9.90;99.90;;;;;;5023421;28;20021;-33
2024/03/23 12:23:12;;;;;;;4.18;1.23;;;9.80;99.90;;;;;;5032618;28;20033;-37
2024/03/23 12:25:39;;;;;;;3.10;1.55;;;9.60;99.90;;;;;;5023550;28;20033;-34
2024/03/23 12:28:08;;;;;;;3.42;1.02;;;9.50;99.90;;;;;;5033136;28;20017;-32
2024/03/23 12:30:36;;;;;;;3.10;1.10;;;9.40;99.90;;;;;;5021249;28;20036;-34
2024/03/23 12:33:03;;;;;;;4.15;1.10;;;9.40;99.90;;;;;;5034084;28;20380;-32
2024/03/23 12:35:28;;;;;;;3.17;1.00;;;9.50;99.90;;;;;;5021599;28;20119;-33
2024/03/23 12:37:54;;;;;;;4.85;1.10;;;9.60;99.90;;;;;;5034504;28;20108;-31
2024/03/23 12:40:20;;;;;;;8.85;1.70;;;9.80;99.90;;;;;;5021844;28;20029;-31
2024/03/23 12:42:45;;;;;;;3.17;1.50;;;10.00;99.90;;;;;;5032907;28;20195;-32
2024/03/23 12:45:11;;;;;;;6.00;1.55;;;10.30;99.90;;;;;;5021903;28;20041;-33
2024/03/23 12:47:36;;;;;;;3.17;1.40;;;10.50;99.90;;;;;;5031080;28;20138;-32
2024/03/23 12:50:02;;;;;;;8.63;1.45;;;10.70;99.90;;;;;;5024316;28;20029;-35